createdAt,value
2017-12-29T12:02:40.130Z,8596.00
2017-12-29T12:02:40.671Z,8604.00
2017-12-29T12:02:41.201Z,8628.00
2017-12-29T12:02:41.717Z,8632.00
2017-12-29T12:02:42.294Z,8640.00
2017-12-29T12:02:42.842Z,8680.00
2017-12-29T12:06:54.034Z,9504.00
2017-12-29T12:06:54.522Z,9260.00
2017-12-29T12:06:55.042Z,9028.00
2017-12-29T12:06:55.594Z,8428.00
2017-12-29T12:06:56.047Z,5656.00
2017-12-29T12:06:56.634Z,4160.00
2017-12-29T12:06:57.187Z,3004.00
2017-12-29T12:06:57.737Z,3020.00
2017-12-29T12:06:58.275Z,2112.00
2017-12-29T12:06:58.737Z,2336.00
2017-12-29T12:06:59.277Z,3456.00
2017-12-29T12:08:43.987Z,9988.00
2017-12-29T12:08:44.513Z,9980.00
2017-12-29T12:08:45.023Z,9980.00
2017-12-29T12:08:45.533Z,9980.00
2017-12-29T12:08:46.054Z,9976.00
2017-12-29T12:08:46.576Z,9980.00
2017-12-29T12:08:47.130Z,9980.00
2017-12-29T12:08:47.694Z,9980.00
2017-12-29T12:09:40.692Z,9852.00
2017-12-29T12:09:41.254Z,9856.00
2017-12-29T12:09:41.774Z,9856.00
2017-12-29T12:09:42.295Z,9852.00
2017-12-29T12:09:42.828Z,9852.00
2017-12-29T12:09:43.348Z,9852.00
2017-12-29T12:09:43.902Z,9856.00
2017-12-29T12:09:44.450Z,9840.00
2017-12-29T12:10:36.907Z,9768.00
2017-12-29T12:10:37.420Z,9764.00
2017-12-29T12:10:37.930Z,9760.00
2017-12-29T12:10:38.453Z,9756.00
2017-12-29T12:10:38.967Z,9764.00
2017-12-29T12:10:39.489Z,9756.00
2017-12-29T12:10:40.056Z,9756.00
2017-12-29T12:10:40.599Z,9752.00
2017-12-29T12:10:41.143Z,9752.00
2017-12-29T12:14:03.957Z,8564.00
2017-12-29T12:14:04.527Z,8568.00
2017-12-29T12:14:05.042Z,8560.00
2017-12-29T12:14:05.574Z,8568.00
2017-12-29T12:14:06.084Z,8600.00
2017-12-29T12:14:06.598Z,8616.00
2017-12-29T12:14:07.171Z,8608.00
2017-12-29T12:14:07.736Z,8600.00
2017-12-29T12:14:08.282Z,8596.00
2017-12-29T12:15:51.506Z,8736.00
2017-12-29T12:15:52.065Z,8736.00
2017-12-29T12:15:52.581Z,8732.00
2017-12-29T12:15:53.099Z,8728.00
2017-12-29T12:15:53.622Z,8728.00
2017-12-29T12:15:54.140Z,8728.00
2017-12-29T12:15:54.718Z,8724.00
2017-12-29T12:15:55.242Z,8720.00
2017-12-29T12:15:55.762Z,8716.00
2017-12-29T12:17:38.326Z,8172.00
2017-12-29T12:17:38.855Z,7268.00
2017-12-29T12:17:39.364Z,6264.00
2017-12-29T12:17:39.894Z,6092.00
2017-12-29T12:17:40.427Z,6124.00
2017-12-29T12:17:40.937Z,6632.00
2017-12-29T12:17:41.457Z,6996.00
2017-12-29T12:17:41.977Z,7284.00
2017-12-29T12:17:42.549Z,7284.00
2017-12-29T12:18:35.073Z,8496.00
2017-12-29T12:18:35.585Z,8528.00
2017-12-29T12:18:36.095Z,8540.00
2017-12-29T12:18:36.653Z,8536.00
2017-12-29T12:18:37.190Z,8524.00
2017-12-29T12:18:37.708Z,8540.00
2017-12-29T12:18:38.260Z,8540.00
2017-12-29T12:18:38.807Z,8516.00
2017-12-29T12:18:39.342Z,8516.00
2017-12-29T12:20:21.886Z,8160.00
2017-12-29T12:20:22.469Z,8164.00
2017-12-29T12:20:22.991Z,8160.00
2017-12-29T12:20:23.514Z,8156.00
2017-12-29T12:20:24.033Z,8156.00
2017-12-29T12:20:24.553Z,8152.00
2017-12-29T12:20:25.073Z,8152.00
2017-12-29T12:20:25.594Z,8148.00
2017-12-29T12:20:26.164Z,8148.00
2017-12-29T12:21:19.169Z,7884.00
2017-12-29T12:21:19.737Z,7840.00
2017-12-29T12:21:20.264Z,7784.00
2017-12-29T12:21:20.783Z,7736.00
2017-12-29T12:21:21.318Z,7772.00
2017-12-29T12:21:21.813Z,7804.00
2017-12-29T12:21:22.338Z,7820.00
2017-12-29T12:21:22.858Z,7836.00
2017-12-29T12:22:15.189Z,7692.00
2017-12-29T12:22:15.749Z,7688.00
2017-12-29T12:22:16.287Z,7684.00
2017-12-29T12:22:16.865Z,7688.00
2017-12-29T12:22:17.387Z,7684.00
2017-12-29T12:22:17.919Z,7672.00
2017-12-29T12:22:18.456Z,7604.00
2017-12-29T12:22:19.033Z,7624.00
2017-12-29T12:22:19.576Z,7628.00
2017-12-29T12:23:13.539Z,7440.00
2017-12-29T12:23:14.110Z,7436.00
2017-12-29T12:23:14.619Z,7436.00
2017-12-29T12:23:15.149Z,7432.00
2017-12-29T12:23:15.674Z,7432.00
2017-12-29T12:23:16.194Z,7432.00
2017-12-29T12:23:16.720Z,7428.00
2017-12-29T12:23:17.256Z,7428.00
2017-12-29T12:23:17.794Z,7424.00
2017-12-29T12:23:18.354Z,7420.00
2017-12-29T12:23:18.876Z,7392.00
2017-12-29T12:23:19.396Z,7392.00
2017-12-29T12:23:19.958Z,7400.00
2017-12-29T12:23:20.504Z,7400.00
2017-12-29T12:23:21.022Z,7384.00
2017-12-29T12:23:21.591Z,7392.00
2017-12-29T12:23:22.072Z,7384.00
2017-12-29T12:23:22.594Z,7380.00
2017-12-29T12:23:23.112Z,7392.00
2017-12-29T12:23:23.626Z,7388.00
2017-12-29T12:23:24.212Z,7404.00
2017-12-29T12:23:24.759Z,7368.00
2017-12-29T12:23:25.274Z,7388.00
2017-12-29T12:23:25.794Z,7396.00
2017-12-29T12:23:26.352Z,7396.00
2017-12-29T12:23:26.874Z,7388.00
2017-12-29T12:23:27.394Z,7380.00
2017-12-29T12:23:27.964Z,7372.00
2017-12-29T12:23:28.502Z,7372.00
2017-12-29T12:23:29.018Z,7356.00
2017-12-29T12:23:29.542Z,7348.00
2017-12-29T12:23:30.127Z,7344.00
2017-12-29T12:23:30.650Z,7340.00
2017-12-29T12:23:31.198Z,7332.00
2017-12-29T12:23:31.724Z,7348.00
2017-12-29T12:23:32.264Z,7360.00
2017-12-29T12:23:32.790Z,7368.00
2017-12-29T12:23:33.300Z,7360.00
2017-12-29T12:23:33.876Z,7360.00
2017-12-29T12:23:34.422Z,7360.00
2017-12-29T12:23:34.974Z,7360.00
2017-12-29T12:23:35.490Z,7356.00
2017-12-29T12:23:36.026Z,7356.00
2017-12-29T12:23:36.582Z,7360.00
2017-12-29T12:23:37.102Z,7356.00
2017-12-29T12:23:37.623Z,7356.00
2017-12-29T12:23:38.152Z,7348.00
2017-12-29T12:23:38.676Z,7340.00
2017-12-29T12:23:39.241Z,7336.00
2017-12-29T12:23:39.762Z,7340.00
2017-12-29T12:23:40.274Z,7340.00
2017-12-29T12:23:40.798Z,7340.00
2017-12-29T12:23:41.308Z,7332.00
2017-12-29T12:23:41.880Z,7324.00
2017-12-29T12:23:42.402Z,7328.00
2017-12-29T12:23:42.925Z,7332.00
2017-12-29T12:23:43.444Z,7332.00
2017-12-29T12:23:43.984Z,7324.00
2017-12-29T12:23:44.494Z,7324.00
2017-12-29T12:23:45.022Z,7320.00
2017-12-29T12:23:45.544Z,7324.00
2017-12-29T12:23:46.124Z,7316.00
2017-12-29T12:23:46.632Z,7312.00
2017-12-29T12:23:47.191Z,7312.00
2017-12-29T12:23:47.724Z,7316.00
2017-12-29T12:23:48.258Z,7320.00
2017-12-29T12:23:48.772Z,7316.00
2017-12-29T12:23:49.304Z,7316.00
2017-12-29T12:23:49.883Z,7312.00
2017-12-29T12:23:50.424Z,7312.00
2017-12-29T12:23:50.955Z,7312.00
2017-12-29T12:23:51.476Z,7312.00
2017-12-29T12:23:52.014Z,7308.00
2017-12-29T12:23:52.526Z,7308.00
2017-12-29T12:23:53.080Z,7308.00
2017-12-29T12:23:53.635Z,7308.00
2017-12-29T12:23:54.204Z,7296.00
2017-12-29T12:23:54.734Z,7272.00
2017-12-29T12:23:55.272Z,7260.00
2017-12-29T12:23:55.803Z,7260.00
2017-12-29T12:23:56.348Z,7268.00
2017-12-29T12:23:56.894Z,7260.00
2017-12-29T12:23:57.408Z,7264.00
2017-12-29T12:23:57.934Z,7276.00
2017-12-29T12:23:58.502Z,7272.00
2017-12-29T12:23:59.022Z,7272.00
2017-12-29T12:23:59.546Z,7272.00
2017-12-29T12:24:00.128Z,7268.00
2017-12-29T12:24:00.671Z,7264.00
2017-12-29T12:24:01.196Z,7268.00
2017-12-29T12:24:01.725Z,7272.00
2017-12-29T12:24:02.264Z,7272.00
2017-12-29T12:24:02.840Z,7280.00
2017-12-29T12:24:03.384Z,7268.00
2017-12-29T12:24:03.918Z,7268.00
2017-12-29T12:24:04.437Z,7268.00
2017-12-29T12:24:04.946Z,7260.00
2017-12-29T12:24:05.474Z,7260.00
2017-12-29T12:24:06.046Z,7260.00
2017-12-29T12:24:06.581Z,7256.00
2017-12-29T12:24:07.158Z,7248.00
2017-12-29T12:24:07.692Z,7256.00
2017-12-29T12:24:08.258Z,7252.00
2017-12-29T12:24:08.846Z,7252.00
2017-12-29T12:24:09.397Z,7248.00
2017-12-29T12:24:09.956Z,7252.00
2017-12-29T12:24:10.484Z,7244.00
2017-12-29T12:24:11.012Z,7232.00
2017-12-29T12:24:11.549Z,7216.00
2017-12-29T12:24:12.057Z,7216.00
2017-12-29T12:24:12.588Z,7208.00
2017-12-29T12:24:13.160Z,7152.00
2017-12-29T12:24:13.694Z,7024.00
2017-12-29T12:24:14.210Z,7016.00
2017-12-29T12:24:14.752Z,7184.00
2017-12-29T12:24:15.308Z,7208.00
2017-12-29T12:24:15.880Z,7184.00
2017-12-29T12:24:16.422Z,7192.00
2017-12-29T12:24:16.940Z,7204.00
2017-12-29T12:24:17.462Z,7208.00
2017-12-29T12:24:18.038Z,7208.00
2017-12-29T12:24:18.584Z,7204.00
2017-12-29T12:24:19.263Z,7212.00
2017-12-29T12:24:19.634Z,7208.00
2017-12-29T12:24:20.171Z,7208.00
2017-12-29T12:24:20.690Z,7208.00
2017-12-29T12:24:21.213Z,7204.00
2017-12-29T12:24:21.734Z,7208.00
2017-12-29T12:24:22.264Z,7208.00
2017-12-29T12:24:22.844Z,7208.00
2017-12-29T12:24:23.360Z,7204.00
2017-12-29T12:24:23.902Z,7200.00
2017-12-29T12:24:24.416Z,7204.00
2017-12-29T12:24:24.947Z,7196.00
2017-12-29T12:24:25.462Z,7200.00
2017-12-29T12:24:26.046Z,7204.00
2017-12-29T12:24:26.562Z,7200.00
2017-12-29T12:24:27.083Z,7200.00
2017-12-29T12:24:27.604Z,7192.00
2017-12-29T12:24:28.134Z,7192.00
2017-12-29T12:24:28.674Z,7188.00
2017-12-29T12:24:29.232Z,7188.00
2017-12-29T12:24:29.803Z,7188.00
2017-12-29T12:24:30.344Z,7180.00
2017-12-29T12:24:30.864Z,7184.00
2017-12-29T12:24:31.382Z,7184.00
2017-12-29T12:24:31.904Z,7180.00
2017-12-29T12:24:32.432Z,7180.00
2017-12-29T12:24:32.942Z,7172.00
2017-12-29T12:24:33.466Z,7172.00
2017-12-29T12:24:34.032Z,7176.00
2017-12-29T12:24:34.542Z,7176.00
2017-12-29T12:24:35.078Z,7172.00
2017-12-29T12:24:35.596Z,7168.00
2017-12-29T12:24:36.124Z,7164.00
2017-12-29T12:24:36.652Z,7156.00
2017-12-29T12:24:37.216Z,7152.00
2017-12-29T12:24:37.782Z,7156.00
2017-12-29T12:24:38.304Z,7160.00
2017-12-29T12:24:38.834Z,7160.00
2017-12-29T12:24:39.350Z,7152.00
2017-12-29T12:24:39.886Z,7152.00
2017-12-29T12:24:40.416Z,7148.00
2017-12-29T12:24:40.936Z,7148.00
2017-12-29T12:24:41.464Z,7144.00
2017-12-29T12:24:41.986Z,7148.00
2017-12-29T12:24:42.510Z,7144.00
2017-12-29T12:24:43.034Z,7148.00
2017-12-29T12:24:43.550Z,7144.00
2017-12-29T12:24:44.119Z,7144.00
2017-12-29T12:24:44.680Z,7144.00
2017-12-29T12:24:45.220Z,7140.00
2017-12-29T12:24:45.742Z,7140.00
2017-12-29T12:24:46.265Z,7136.00
2017-12-29T12:24:46.844Z,7132.00
2017-12-29T12:24:47.388Z,7132.00
2017-12-29T12:24:47.912Z,7136.00
2017-12-29T12:24:48.434Z,7132.00
2017-12-29T12:24:48.998Z,7132.00
2017-12-29T12:24:49.520Z,7124.00
2017-12-29T12:24:50.045Z,7128.00
2017-12-29T12:24:50.586Z,7124.00
2017-12-29T12:24:51.164Z,7124.00
2017-12-29T12:24:51.714Z,7124.00
2017-12-29T12:24:52.234Z,7120.00
2017-12-29T12:24:52.752Z,7120.00
2017-12-29T12:24:53.304Z,7104.00
2017-12-29T12:24:53.878Z,7096.00
2017-12-29T12:24:54.434Z,7108.00
2017-12-29T12:24:54.964Z,7100.00
2017-12-29T12:24:55.482Z,7108.00
2017-12-29T12:24:56.004Z,7108.00
2017-12-29T12:24:56.525Z,7112.00
2017-12-29T12:24:57.044Z,7108.00
2017-12-29T12:24:57.564Z,7108.00
2017-12-29T12:24:58.084Z,7104.00
2017-12-29T12:24:58.612Z,7100.00
2017-12-29T12:24:59.142Z,7096.00
2017-12-29T12:24:59.664Z,7096.00
2017-12-29T12:25:00.182Z,7092.00
2017-12-29T12:25:00.707Z,7096.00
2017-12-29T12:25:01.220Z,7092.00
2017-12-29T12:25:01.807Z,7092.00
2017-12-29T12:25:02.340Z,7092.00
2017-12-29T12:25:02.929Z,7092.00
2017-12-29T12:25:03.452Z,7088.00
2017-12-29T12:25:03.976Z,7084.00
2017-12-29T12:25:04.508Z,7088.00
2017-12-29T12:25:05.076Z,7084.00
2017-12-29T12:25:05.636Z,7084.00
2017-12-29T12:25:06.156Z,7080.00
2017-12-29T12:25:06.673Z,7076.00
2017-12-29T12:25:07.193Z,7068.00
2017-12-29T12:25:07.714Z,7068.00
2017-12-29T12:25:08.264Z,7068.00
2017-12-29T12:25:08.792Z,7064.00
2017-12-29T12:25:09.308Z,7064.00
2017-12-29T12:25:09.844Z,7064.00
2017-12-29T12:25:10.366Z,7064.00
2017-12-29T12:25:10.894Z,7064.00
2017-12-29T12:25:11.450Z,7060.00
2017-12-29T12:25:12.024Z,7060.00
2017-12-29T12:25:12.571Z,7056.00
2017-12-29T12:25:13.148Z,7056.00
2017-12-29T12:25:13.684Z,7052.00
2017-12-29T12:25:14.203Z,7044.00
2017-12-29T12:25:14.758Z,7048.00
2017-12-29T12:25:15.319Z,7040.00
2017-12-29T12:25:15.835Z,7044.00
2017-12-29T12:25:16.362Z,7048.00
2017-12-29T12:25:16.917Z,7040.00
2017-12-29T12:25:17.468Z,7032.00
2017-12-29T12:25:18.036Z,7036.00
2017-12-29T12:25:18.572Z,7032.00
2017-12-29T12:25:19.096Z,7036.00
2017-12-29T12:25:19.637Z,7040.00
2017-12-29T12:25:20.153Z,7024.00
2017-12-29T12:25:20.674Z,7032.00
2017-12-29T12:25:21.204Z,7024.00
2017-12-29T12:25:21.720Z,7028.00
2017-12-29T12:25:22.264Z,7032.00
2017-12-29T12:25:22.842Z,7040.00
2017-12-29T12:25:23.378Z,7032.00
2017-12-29T12:25:23.904Z,7036.00
2017-12-29T12:25:24.422Z,7032.00
2017-12-29T12:25:25.005Z,7028.00
2017-12-29T12:25:25.550Z,7024.00
2017-12-29T12:25:26.072Z,7016.00
2017-12-29T12:25:26.607Z,7028.00
2017-12-29T12:25:27.149Z,7020.00
2017-12-29T12:25:27.683Z,7020.00
2017-12-29T12:25:28.202Z,7020.00
2017-12-29T12:25:28.736Z,7016.00
2017-12-29T12:25:29.291Z,7016.00
2017-12-29T12:25:29.814Z,7016.00
2017-12-29T12:25:30.338Z,7008.00
2017-12-29T12:25:30.860Z,7012.00
2017-12-29T12:25:31.386Z,7012.00
2017-12-29T12:25:31.968Z,7004.00
2017-12-29T12:25:32.492Z,7004.00
2017-12-29T12:25:33.068Z,7004.00
2017-12-29T12:25:33.642Z,7004.00
2017-12-29T12:25:34.181Z,7004.00
2017-12-29T12:25:34.760Z,7000.00
2017-12-29T12:25:35.268Z,7000.00
2017-12-29T12:25:35.797Z,6996.00
2017-12-29T12:25:36.348Z,6992.00
2017-12-29T12:25:36.880Z,6988.00
2017-12-29T12:25:37.404Z,6992.00
2017-12-29T12:25:37.962Z,6988.00
2017-12-29T12:25:38.484Z,6988.00
2017-12-29T12:25:39.004Z,6980.00
2017-12-29T12:25:39.534Z,6988.00
2017-12-29T12:25:40.098Z,6988.00
2017-12-29T12:25:40.626Z,6984.00
2017-12-29T12:25:41.142Z,6976.00
2017-12-29T12:25:41.664Z,6968.00
2017-12-29T12:25:42.182Z,6972.00
2017-12-29T12:25:42.760Z,6972.00
2017-12-29T12:25:43.290Z,6968.00
2017-12-29T12:25:43.866Z,6968.00
2017-12-29T12:25:44.385Z,6972.00
2017-12-29T12:25:44.901Z,6972.00
2017-12-29T12:25:45.470Z,6968.00
2017-12-29T12:25:46.036Z,6968.00
2017-12-29T12:25:46.596Z,6964.00
2017-12-29T12:25:47.118Z,6960.00
2017-12-29T12:25:47.636Z,6964.00
2017-12-29T12:25:48.196Z,6960.00
2017-12-29T12:25:48.758Z,6964.00
2017-12-29T12:25:49.304Z,6956.00
2017-12-29T12:25:49.823Z,6952.00
2017-12-29T12:25:50.352Z,6952.00
2017-12-29T12:25:50.872Z,6948.00
2017-12-29T12:25:51.392Z,6948.00
2017-12-29T12:25:51.933Z,6940.00
2017-12-29T12:25:52.494Z,6940.00
2017-12-29T12:25:53.014Z,6940.00
2017-12-29T12:25:53.543Z,6936.00
2017-12-29T12:25:54.108Z,6808.00
2017-12-29T12:25:54.676Z,6804.00
2017-12-29T12:25:55.218Z,6836.00
2017-12-29T12:25:55.800Z,6848.00
2017-12-29T12:25:56.322Z,6860.00
2017-12-29T12:25:56.844Z,6888.00
2017-12-29T12:25:57.376Z,6900.00
2017-12-29T12:25:57.942Z,6908.00
2017-12-29T12:25:58.454Z,6916.00
2017-12-29T12:25:58.981Z,6920.00
2017-12-29T12:25:59.570Z,6916.00
2017-12-29T12:26:00.084Z,6912.00
2017-12-29T12:26:00.612Z,6912.00
2017-12-29T12:26:01.144Z,6912.00
2017-12-29T12:26:01.710Z,6904.00
2017-12-29T12:26:02.268Z,6856.00
2017-12-29T12:26:02.802Z,6832.00
2017-12-29T12:26:03.328Z,6856.00
2017-12-29T12:26:03.844Z,6872.00
2017-12-29T12:26:04.371Z,6876.00
2017-12-29T12:26:04.918Z,6876.00
2017-12-29T12:26:05.468Z,6876.00
2017-12-29T12:26:06.022Z,6884.00
2017-12-29T12:26:06.552Z,6888.00
2017-12-29T12:26:07.074Z,6892.00
2017-12-29T12:26:07.648Z,6892.00
2017-12-29T12:26:08.184Z,6892.00
2017-12-29T12:26:08.757Z,6896.00
2017-12-29T12:26:09.271Z,6892.00
2017-12-29T12:26:09.804Z,6888.00
2017-12-29T12:26:10.322Z,6892.00
2017-12-29T12:26:10.844Z,6892.00
2017-12-29T12:26:11.384Z,6888.00
2017-12-29T12:26:11.946Z,6888.00
2017-12-29T12:26:12.524Z,6884.00
2017-12-29T12:26:13.044Z,6884.00
2017-12-29T12:26:13.562Z,6888.00
2017-12-29T12:26:14.104Z,6884.00
2017-12-29T12:26:14.658Z,6884.00
2017-12-29T12:26:15.228Z,6884.00
2017-12-29T12:26:15.754Z,6880.00
2017-12-29T12:26:16.274Z,6880.00
2017-12-29T12:26:16.792Z,6876.00
2017-12-29T12:26:17.314Z,6880.00
2017-12-29T12:26:17.828Z,6876.00
2017-12-29T12:26:18.354Z,6876.00
2017-12-29T12:26:18.927Z,6872.00
2017-12-29T12:26:19.475Z,6872.00
2017-12-29T12:26:20.026Z,6868.00
2017-12-29T12:26:20.554Z,6864.00
2017-12-29T12:26:21.074Z,6872.00
2017-12-29T12:26:21.603Z,6860.00
2017-12-29T12:26:22.126Z,6860.00
2017-12-29T12:26:22.684Z,6852.00
2017-12-29T12:26:23.204Z,6856.00
2017-12-29T12:26:23.724Z,6856.00
2017-12-29T12:26:24.242Z,6856.00
2017-12-29T12:26:24.762Z,6848.00
2017-12-29T12:26:25.304Z,6852.00
2017-12-29T12:26:25.884Z,6844.00
2017-12-29T12:26:26.428Z,6852.00
2017-12-29T12:26:26.952Z,6848.00
2017-12-29T12:26:27.484Z,6844.00
2017-12-29T12:26:28.000Z,6848.00
2017-12-29T12:26:28.526Z,6844.00
2017-12-29T12:26:29.034Z,6840.00
2017-12-29T12:26:29.558Z,6836.00
2017-12-29T12:26:30.078Z,6840.00
2017-12-29T12:26:30.603Z,6836.00
2017-12-29T12:26:31.151Z,6832.00
2017-12-29T12:26:31.684Z,6832.00
2017-12-29T12:26:32.210Z,6832.00
2017-12-29T12:26:32.750Z,6824.00
2017-12-29T12:26:33.308Z,6824.00
2017-12-29T12:26:33.914Z,6824.00
2017-12-29T12:26:34.412Z,6824.00
2017-12-29T12:26:34.936Z,6828.00
2017-12-29T12:26:35.482Z,6824.00
2017-12-29T12:26:36.046Z,6824.00
2017-12-29T12:26:36.568Z,6820.00
2017-12-29T12:26:37.078Z,6808.00
2017-12-29T12:26:37.642Z,6784.00
2017-12-29T12:26:38.160Z,6756.00
2017-12-29T12:26:38.688Z,6684.00
2017-12-29T12:26:39.222Z,6584.00
2017-12-29T12:26:39.800Z,5712.00
2017-12-29T12:26:40.336Z,4468.00
2017-12-29T12:26:40.854Z,4444.00
2017-12-29T12:26:41.374Z,4528.00
2017-12-29T12:26:41.904Z,4928.00
2017-12-29T12:26:42.435Z,5388.00
2017-12-29T12:26:43.015Z,5492.00
2017-12-29T12:26:43.572Z,5528.00
2017-12-29T12:26:44.104Z,5528.00
2017-12-29T12:26:44.624Z,5592.00
2017-12-29T12:26:45.152Z,5680.00
2017-12-29T12:26:45.686Z,5684.00
2017-12-29T12:26:46.200Z,5316.00
2017-12-29T12:26:46.774Z,4780.00
2017-12-29T12:26:47.261Z,4644.00
2017-12-29T12:26:47.794Z,4964.00
2017-12-29T12:26:48.308Z,5664.00
2017-12-29T12:26:48.850Z,6208.00
2017-12-29T12:26:49.368Z,6012.00
2017-12-29T12:26:49.883Z,6000.00
2017-12-29T12:26:50.448Z,5844.00
2017-12-29T12:26:50.986Z,5752.00
2017-12-29T12:26:51.564Z,5796.00
2017-12-29T12:26:52.074Z,5592.00
2017-12-29T12:26:52.605Z,5116.00
2017-12-29T12:26:53.144Z,4784.00
2017-12-29T12:26:53.730Z,4612.00
2017-12-29T12:26:54.268Z,4444.00
2017-12-29T12:26:54.798Z,4844.00
2017-12-29T12:26:55.328Z,3412.00
2017-12-29T12:26:55.838Z,3956.00
2017-12-29T12:26:56.356Z,3536.00
2017-12-29T12:26:56.891Z,5032.00
2017-12-29T12:26:57.412Z,4988.00
2017-12-29T12:26:57.946Z,5080.00
2017-12-29T12:26:58.512Z,4968.00
2017-12-29T12:26:59.079Z,5048.00
2017-12-29T12:26:59.604Z,4916.00
2017-12-29T12:27:00.122Z,4944.00
2017-12-29T12:27:00.684Z,4916.00
2017-12-29T12:27:01.225Z,4744.00
2017-12-29T12:27:01.752Z,4860.00
2017-12-29T12:27:02.272Z,4868.00
2017-12-29T12:27:02.833Z,4848.00
2017-12-29T12:27:03.462Z,4788.00
2017-12-29T12:27:04.041Z,4804.00
2017-12-29T12:27:04.606Z,4768.00
2017-12-29T12:27:05.124Z,4812.00
2017-12-29T12:27:05.693Z,4780.00
2017-12-29T12:27:06.272Z,4828.00
2017-12-29T12:27:06.837Z,4836.00
2017-12-29T12:27:07.389Z,4836.00
2017-12-29T12:27:07.914Z,4692.00
2017-12-29T12:27:08.481Z,4816.00
2017-12-29T12:27:08.984Z,4816.00
2017-12-29T12:27:09.562Z,4752.00
2017-12-29T12:27:10.112Z,4684.00
2017-12-29T12:27:10.644Z,4596.00
2017-12-29T12:27:11.179Z,4604.00
2017-12-29T12:27:11.724Z,4564.00
2017-12-29T12:27:12.264Z,4736.00
2017-12-29T12:27:12.822Z,4720.00
2017-12-29T12:27:13.413Z,4764.00
2017-12-29T12:27:14.038Z,4820.00
2017-12-29T12:27:14.582Z,4808.00
2017-12-29T12:27:15.098Z,4768.00
2017-12-29T12:27:15.634Z,4628.00
2017-12-29T12:27:16.292Z,4268.00
2017-12-29T12:27:16.780Z,4364.00
2017-12-29T12:27:17.424Z,4308.00
2017-12-29T12:27:18.077Z,4344.00
2017-12-29T12:27:18.610Z,4344.00
2017-12-29T12:27:19.144Z,4500.00
2017-12-29T12:27:19.718Z,4492.00
2017-12-29T12:27:20.266Z,4504.00
2017-12-29T12:27:20.844Z,4532.00
2017-12-29T12:27:21.392Z,4448.00
2017-12-29T12:27:21.912Z,4500.00
2017-12-29T12:27:22.436Z,4512.00
2017-12-29T12:27:22.984Z,4516.00
2017-12-29T12:27:23.564Z,4556.00
2017-12-29T12:27:24.074Z,4548.00
2017-12-29T12:27:24.597Z,4536.00
2017-12-29T12:27:25.148Z,4636.00
2017-12-29T12:27:25.722Z,4424.00
2017-12-29T12:27:26.244Z,4332.00
2017-12-29T12:27:26.765Z,4912.00
2017-12-29T12:27:27.304Z,5108.00
2017-12-29T12:27:27.878Z,4920.00
2017-12-29T12:27:28.439Z,4892.00
2017-12-29T12:27:28.984Z,4736.00
2017-12-29T12:27:29.563Z,4592.00
2017-12-29T12:27:30.112Z,4704.00
2017-12-29T12:27:30.622Z,4904.00
2017-12-29T12:27:31.143Z,4700.00
2017-12-29T12:27:31.717Z,4720.00
2017-12-29T12:27:32.264Z,4724.00
2017-12-29T12:27:32.836Z,4772.00
2017-12-29T12:27:33.402Z,4704.00
2017-12-29T12:27:33.912Z,4884.00
2017-12-29T12:27:34.440Z,4956.00
2017-12-29T12:27:34.984Z,5480.00
2017-12-29T12:27:35.516Z,5880.00
2017-12-29T12:27:36.036Z,4952.00
2017-12-29T12:27:36.593Z,3960.00
2017-12-29T12:27:37.146Z,4616.00
2017-12-29T12:27:37.668Z,4664.00
2017-12-29T12:27:38.188Z,4496.00
2017-12-29T12:27:38.772Z,4348.00
2017-12-29T12:27:39.292Z,4364.00
2017-12-29T12:27:39.804Z,4288.00
2017-12-29T12:27:40.332Z,4360.00
2017-12-29T12:27:40.894Z,4428.00
2017-12-29T12:27:41.480Z,4488.00
2017-12-29T12:27:42.030Z,4504.00
2017-12-29T12:27:42.594Z,4528.00
2017-12-29T12:27:43.117Z,4588.00
2017-12-29T12:27:43.628Z,4636.00
2017-12-29T12:27:44.156Z,4560.00
2017-12-29T12:27:44.684Z,4584.00
2017-12-29T12:27:45.222Z,4780.00
2017-12-29T12:27:45.807Z,4784.00
2017-12-29T12:27:46.354Z,4836.00
2017-12-29T12:27:46.872Z,4876.00
2017-12-29T12:27:47.400Z,4472.00
2017-12-29T12:27:47.938Z,4364.00
2017-12-29T12:27:48.452Z,4420.00
2017-12-29T12:27:48.980Z,4484.00
2017-12-29T12:27:49.494Z,4524.00
2017-12-29T12:27:50.024Z,4560.00
2017-12-29T12:27:50.544Z,4608.00
2017-12-29T12:27:51.068Z,4676.00
2017-12-29T12:27:51.600Z,4628.00
2017-12-29T12:27:52.132Z,4500.00
2017-12-29T12:27:52.672Z,4428.00
2017-12-29T12:27:53.224Z,4412.00
2017-12-29T12:27:53.799Z,4360.00
2017-12-29T12:27:54.324Z,4424.00
2017-12-29T12:27:54.844Z,4460.00
2017-12-29T12:27:55.383Z,4524.00
2017-12-29T12:27:55.960Z,4184.00
2017-12-29T12:27:56.489Z,4220.00
2017-12-29T12:27:57.010Z,4224.00
2017-12-29T12:27:57.550Z,4232.00
2017-12-29T12:27:58.069Z,4304.00
2017-12-29T12:27:58.608Z,4440.00
2017-12-29T12:27:59.122Z,4452.00
2017-12-29T12:27:59.654Z,4352.00
2017-12-29T12:28:00.182Z,4272.00
2017-12-29T12:28:00.762Z,4268.00
2017-12-29T12:28:01.290Z,4336.00
2017-12-29T12:28:01.832Z,4504.00
2017-12-29T12:28:02.352Z,4364.00
2017-12-29T12:28:02.868Z,4268.00
2017-12-29T12:28:03.387Z,4564.00
2017-12-29T12:28:03.950Z,4644.00
2017-12-29T12:28:04.475Z,4684.00
2017-12-29T12:28:05.034Z,4592.00
2017-12-29T12:28:05.568Z,4960.00
2017-12-29T12:28:06.118Z,4768.00
2017-12-29T12:28:06.680Z,4868.00
2017-12-29T12:28:07.218Z,4640.00
2017-12-29T12:28:07.800Z,4576.00
2017-12-29T12:28:08.334Z,4604.00
2017-12-29T12:28:08.886Z,4648.00
2017-12-29T12:28:09.482Z,4708.00
2017-12-29T12:28:10.024Z,4808.00
2017-12-29T12:28:10.592Z,4828.00
2017-12-29T12:28:11.114Z,4740.00
2017-12-29T12:28:11.680Z,4868.00
2017-12-29T12:28:12.276Z,4864.00
2017-12-29T12:28:12.836Z,4872.00
2017-12-29T12:28:13.398Z,4752.00
2017-12-29T12:28:13.908Z,4708.00
2017-12-29T12:28:14.478Z,4704.00
2017-12-29T12:28:14.948Z,5060.00
2017-12-29T12:28:15.474Z,5588.00
2017-12-29T12:28:16.068Z,5832.00
2017-12-29T12:28:16.572Z,5904.00
2017-12-29T12:28:17.155Z,5660.00
2017-12-29T12:28:17.674Z,4860.00
2017-12-29T12:28:18.200Z,5196.00
2017-12-29T12:28:18.775Z,4436.00
2017-12-29T12:28:19.302Z,3932.00
2017-12-29T12:28:19.874Z,2520.00
2017-12-29T12:28:20.390Z,3400.00
2017-12-29T12:28:20.924Z,3472.00
2017-12-29T12:28:21.503Z,4240.00
2017-12-29T12:28:22.047Z,4984.00
2017-12-29T12:28:22.648Z,3848.00
2017-12-29T12:28:23.171Z,3400.00
2017-12-29T12:28:23.667Z,2952.00
2017-12-29T12:28:24.184Z,3356.00
2017-12-29T12:28:24.801Z,3440.00
2017-12-29T12:28:25.336Z,3608.00
2017-12-29T12:28:25.872Z,3532.00
2017-12-29T12:28:26.444Z,4388.00
2017-12-29T12:28:26.970Z,5168.00
2017-12-29T12:28:27.492Z,5696.00
2017-12-29T12:28:28.016Z,6008.00
2017-12-29T12:28:28.543Z,6168.00
2017-12-29T12:28:29.063Z,6264.00
2017-12-29T12:28:29.584Z,6356.00
2017-12-29T12:28:30.120Z,6360.00
2017-12-29T12:28:30.632Z,6340.00
2017-12-29T12:28:31.151Z,6348.00
2017-12-29T12:28:31.726Z,6344.00
2017-12-29T12:28:32.274Z,6344.00
2017-12-29T12:28:32.831Z,6344.00
2017-12-29T12:28:33.362Z,6344.00
2017-12-29T12:28:33.892Z,6336.00
2017-12-29T12:28:34.434Z,6336.00
2017-12-29T12:28:34.960Z,6332.00
2017-12-29T12:28:35.475Z,6320.00
2017-12-29T12:28:36.040Z,6320.00
2017-12-29T12:28:36.604Z,6336.00
2017-12-29T12:28:37.121Z,6312.00
2017-12-29T12:28:37.642Z,6276.00
2017-12-29T12:28:38.200Z,6288.00
2017-12-29T12:28:38.768Z,6320.00
2017-12-29T12:28:39.325Z,6212.00
2017-12-29T12:28:39.832Z,6148.00
2017-12-29T12:28:40.360Z,6200.00
2017-12-29T12:28:40.914Z,6152.00
2017-12-29T12:28:41.436Z,6208.00
2017-12-29T12:28:41.976Z,6104.00
2017-12-29T12:28:42.523Z,6164.00
2017-12-29T12:28:43.062Z,6336.00
2017-12-29T12:28:43.589Z,6200.00
2017-12-29T12:28:44.124Z,6100.00
2017-12-29T12:28:44.646Z,6216.00
2017-12-29T12:28:45.172Z,6304.00
2017-12-29T12:28:45.712Z,6012.00
2017-12-29T12:28:46.286Z,6136.00
2017-12-29T12:28:46.826Z,5768.00
2017-12-29T12:28:47.353Z,6092.00
2017-12-29T12:28:47.872Z,6356.00
2017-12-29T12:28:48.481Z,6528.00